TRA68G LIPX-EHAM
Flight info
| Callsign | TRA68G |
|---|---|
| Flight time | 1h 27m |
| Altitude | 36000 |
| Route | OTZOM Y480 UPXUF L612 ADOSA DCT BORMI DCT EKPIS DCT BRENO DCT KONIN M726 MAH DCT ASPAT DCT MASEK DCT MAPOX DCT NORKU |
| Aircraft | A21N/M-SBDE2E3FGHIJ1J5M1P2RWXYZ/LB1D1G1 |
Departure
| Time | 2026-05-07 20:24 |
|---|---|
| Airport | Verona Villafranca Valerio Catullo Airport (LIPX) |
Arrival
| Time | 2026-05-07 21:51 |
|---|---|
| Airport | Amsterdam Airport Schiphol (EHAM) |
| Time | Latitude | Longitude | Altitude | Speed | Heading |
|---|---|---|---|---|---|
| 2026-05-07 20:23 | 45.27516 | 10.75868 | 8391 ft | 282 kts | 138° |
| 2026-05-07 20:24 | 45.26365 | 10.78131 | 9282 ft | 288 kts | 112° |
| 2026-05-07 20:24 | 45.26006 | 10.80894 | 10137 ft | 293 kts | 86° |
| 2026-05-07 20:24 | 45.26473 | 10.83721 | 10947 ft | 298 kts | 69° |
| 2026-05-07 20:24 | 45.27225 | 10.86488 | 11778 ft | 303 kts | 68° |
| 2026-05-07 20:25 | 45.27996 | 10.89309 | 12619 ft | 309 kts | 68° |
| 2026-05-07 20:25 | 45.28755 | 10.92192 | 13466 ft | 315 kts | 69° |
| 2026-05-07 20:25 | 45.29510 | 10.95139 | 14256 ft | 320 kts | 69° |
| 2026-05-07 20:25 | 45.30262 | 10.98131 | 15028 ft | 324 kts | 70° |
| 2026-05-07 20:26 | 45.31017 | 11.01175 | 15811 ft | 328 kts | 70° |
| 2026-05-07 20:26 | 45.31776 | 11.04256 | 16592 ft | 332 kts | 70° |
| 2026-05-07 20:26 | 45.32759 | 11.07275 | 17134 ft | 344 kts | 55° |
| 2026-05-07 20:26 | 45.34421 | 11.09794 | 17466 ft | 359 kts | 33° |
| 2026-05-07 20:27 | 45.36690 | 11.11377 | 17761 ft | 371 kts | 13° |
| 2026-05-07 20:27 | 45.39268 | 11.11840 | 18303 ft | 377 kts | 359° |
| 2026-05-07 20:27 | 45.41903 | 11.11914 | 18964 ft | 381 kts | 358° |
| 2026-05-07 20:27 | 45.44562 | 11.12010 | 19646 ft | 384 kts | 359° |
| 2026-05-07 20:28 | 45.47244 | 11.12163 | 20312 ft | 387 kts | 359° |
| 2026-05-07 20:28 | 45.49952 | 11.12356 | 20948 ft | 391 kts | 360° |
| 2026-05-07 20:28 | 45.52685 | 11.12566 | 21573 ft | 395 kts | 360° |
| 2026-05-07 20:28 | 45.55441 | 11.12787 | 22199 ft | 398 kts | 359° |
| 2026-05-07 20:29 | 45.58222 | 11.13010 | 22795 ft | 402 kts | 359° |
| 2026-05-07 20:29 | 45.61022 | 11.13230 | 23377 ft | 405 kts | 359° |
| 2026-05-07 20:29 | 45.63847 | 11.13450 | 23911 ft | 408 kts | 359° |
| 2026-05-07 20:29 | 45.66695 | 11.13675 | 24396 ft | 411 kts | 359° |
| 2026-05-07 20:30 | 45.69558 | 11.13903 | 24857 ft | 414 kts | 359° |
| 2026-05-07 20:30 | 45.72446 | 11.14134 | 25317 ft | 417 kts | 359° |
| 2026-05-07 20:30 | 45.75353 | 11.14370 | 25734 ft | 419 kts | 358° |
| 2026-05-07 20:30 | 45.78278 | 11.14610 | 26154 ft | 423 kts | 358° |
| 2026-05-07 20:31 | 45.81223 | 11.14851 | 26591 ft | 426 kts | 358° |
| 2026-05-07 20:31 | 45.84193 | 11.15088 | 27034 ft | 429 kts | 358° |
| 2026-05-07 20:31 | 45.87180 | 11.15325 | 27448 ft | 431 kts | 358° |
| 2026-05-07 20:31 | 45.90182 | 11.15566 | 27824 ft | 434 kts | 358° |
| 2026-05-07 20:32 | 45.93208 | 11.15811 | 28204 ft | 437 kts | 357° |
| 2026-05-07 20:32 | 45.96254 | 11.16058 | 28591 ft | 440 kts | 357° |
| 2026-05-07 20:32 | 45.99316 | 11.16307 | 28979 ft | 443 kts | 357° |
| 2026-05-07 20:32 | 46.02362 | 11.16557 | 29377 ft | 446 kts | 358° |
| 2026-05-07 20:33 | 46.05467 | 11.17094 | 29778 ft | 453 kts | 3° |
| 2026-05-07 20:33 | 46.08586 | 11.17882 | 30160 ft | 456 kts | 4° |
| 2026-05-07 20:33 | 46.11718 | 11.18685 | 30496 ft | 458 kts | 4° |
| 2026-05-07 20:33 | 46.14859 | 11.19490 | 30805 ft | 460 kts | 4° |
| 2026-05-07 20:34 | 46.18021 | 11.20297 | 31086 ft | 462 kts | 4° |
| 2026-05-07 20:34 | 46.21196 | 11.21096 | 31373 ft | 464 kts | 4° |
| 2026-05-07 20:34 | 46.24381 | 11.21889 | 31717 ft | 464 kts | 4° |
| 2026-05-07 20:34 | 46.27558 | 11.22682 | 32093 ft | 463 kts | 4° |
| 2026-05-07 20:35 | 46.30734 | 11.23467 | 32439 ft | 463 kts | 4° |
| 2026-05-07 20:35 | 46.33907 | 11.24263 | 32752 ft | 463 kts | 4° |
| 2026-05-07 20:35 | 46.37080 | 11.25069 | 32989 ft | 463 kts | 4° |
| 2026-05-07 20:35 | 46.40248 | 11.25867 | 33291 ft | 461 kts | 4° |
| 2026-05-07 20:36 | 46.43410 | 11.26660 | 33582 ft | 460 kts | 4° |
| 2026-05-07 20:36 | 46.46560 | 11.27448 | 33912 ft | 460 kts | 4° |
| 2026-05-07 20:36 | 46.49714 | 11.28239 | 34173 ft | 460 kts | 4° |
| 2026-05-07 20:36 | 46.52866 | 11.29038 | 34382 ft | 460 kts | 4° |
| 2026-05-07 20:37 | 46.56020 | 11.29834 | 34617 ft | 460 kts | 4° |
| 2026-05-07 20:37 | 46.58108 | 11.30364 | 34758 ft | 460 kts | 4° |
| 2026-05-07 20:37 | 46.61263 | 11.31166 | 34975 ft | 460 kts | 4° |
| 2026-05-07 20:37 | 46.64414 | 11.31974 | 35228 ft | 460 kts | 4° |
| 2026-05-07 20:38 | 46.67561 | 11.32786 | 35395 ft | 460 kts | 4° |
| 2026-05-07 20:38 | 46.70716 | 11.33600 | 35545 ft | 460 kts | 4° |
| 2026-05-07 20:38 | 46.73868 | 11.34403 | 35705 ft | 461 kts | 4° |
| 2026-05-07 20:38 | 46.77024 | 11.35193 | 35914 ft | 459 kts | 4° |
| 2026-05-07 20:39 | 46.80175 | 11.35764 | 36063 ft | 455 kts | 358° |
| 2026-05-07 20:39 | 46.86534 | 11.36414 | 36100 ft | 462 kts | 358° |
| 2026-05-07 20:40 | 46.92987 | 11.37098 | 36079 ft | 468 kts | 359° |
| 2026-05-07 20:40 | 46.99486 | 11.37636 | 36076 ft | 466 kts | 354° |
| 2026-05-07 20:41 | 47.05973 | 11.37591 | 36088 ft | 467 kts | 354° |
| 2026-05-07 20:41 | 47.12487 | 11.37520 | 36082 ft | 468 kts | 354° |
| 2026-05-07 20:42 | 47.19005 | 11.37458 | 36086 ft | 469 kts | 354° |
| 2026-05-07 20:42 | 47.25529 | 11.37396 | 36107 ft | 469 kts | 354° |
| 2026-05-07 20:43 | 47.32055 | 11.37332 | 36087 ft | 469 kts | 354° |
| 2026-05-07 20:43 | 47.38589 | 11.37268 | 36083 ft | 470 kts | 354° |
| 2026-05-07 20:44 | 47.45085 | 11.37198 | 36095 ft | 470 kts | 354° |
| 2026-05-07 20:44 | 47.51618 | 11.37134 | 36081 ft | 469 kts | 355° |
| 2026-05-07 20:45 | 47.58146 | 11.37070 | 36083 ft | 469 kts | 355° |
| 2026-05-07 20:45 | 47.64675 | 11.37010 | 36082 ft | 469 kts | 355° |
| 2026-05-07 20:46 | 47.71204 | 11.36947 | 36081 ft | 469 kts | 355° |
| 2026-05-07 20:46 | 47.77720 | 11.36875 | 36078 ft | 468 kts | 355° |
| 2026-05-07 20:47 | 47.84237 | 11.36807 | 36084 ft | 468 kts | 355° |
| 2026-05-07 20:47 | 47.90721 | 11.36369 | 36097 ft | 466 kts | 352° |
| 2026-05-07 20:48 | 47.97197 | 11.35818 | 36088 ft | 466 kts | 352° |
| 2026-05-07 20:48 | 48.03670 | 11.35271 | 36093 ft | 466 kts | 352° |
| 2026-05-07 20:49 | 48.10100 | 11.34368 | 36107 ft | 463 kts | 348° |
| 2026-05-07 20:49 | 48.16488 | 11.33097 | 36098 ft | 463 kts | 348° |
| 2026-05-07 20:50 | 48.22889 | 11.31850 | 36089 ft | 464 kts | 348° |
| 2026-05-07 20:50 | 48.29071 | 11.29543 | 36087 ft | 455 kts | 334° |
| 2026-05-07 20:51 | 48.34919 | 11.25900 | 36087 ft | 455 kts | 333° |
| 2026-05-07 20:51 | 48.40777 | 11.22256 | 36107 ft | 455 kts | 334° |
| 2026-05-07 20:52 | 48.46637 | 11.18636 | 36102 ft | 455 kts | 334° |
| 2026-05-07 20:52 | 48.52493 | 11.14981 | 36090 ft | 455 kts | 333° |
| 2026-05-07 20:53 | 48.58342 | 11.11309 | 36084 ft | 456 kts | 334° |
| 2026-05-07 20:53 | 48.64160 | 11.07679 | 36084 ft | 456 kts | 334° |
| 2026-05-07 20:54 | 48.70025 | 11.04020 | 36085 ft | 456 kts | 334° |
| 2026-05-07 20:54 | 48.75894 | 11.00349 | 36089 ft | 456 kts | 334° |
| 2026-05-07 20:55 | 48.81750 | 10.96642 | 36100 ft | 456 kts | 334° |
| 2026-05-07 20:55 | 48.87614 | 10.92932 | 36096 ft | 456 kts | 334° |
| 2026-05-07 20:56 | 48.93480 | 10.89236 | 36110 ft | 456 kts | 334° |
| 2026-05-07 20:56 | 48.99343 | 10.85524 | 36115 ft | 456 kts | 334° |
| 2026-05-07 20:57 | 49.05199 | 10.81793 | 36120 ft | 456 kts | 334° |
| 2026-05-07 20:57 | 49.11050 | 10.78026 | 36133 ft | 456 kts | 334° |
| 2026-05-07 20:58 | 49.16908 | 10.74271 | 36132 ft | 457 kts | 334° |
| 2026-05-07 20:58 | 49.22704 | 10.70340 | 36104 ft | 456 kts | 332° |
| 2026-05-07 20:59 | 49.28453 | 10.66241 | 36109 ft | 456 kts | 332° |
| 2026-05-07 20:59 | 49.34186 | 10.62203 | 36103 ft | 456 kts | 333° |
| 2026-05-07 21:00 | 49.39950 | 10.58120 | 36099 ft | 456 kts | 332° |
| 2026-05-07 21:00 | 49.45694 | 10.53978 | 36091 ft | 456 kts | 332° |
| 2026-05-07 21:01 | 49.51443 | 10.49833 | 36096 ft | 456 kts | 332° |
| 2026-05-07 21:01 | 49.57193 | 10.45668 | 36098 ft | 457 kts | 332° |
| 2026-05-07 21:02 | 49.62943 | 10.41512 | 36100 ft | 457 kts | 332° |
| 2026-05-07 21:02 | 49.68696 | 10.37357 | 36095 ft | 456 kts | 332° |
| 2026-05-07 21:03 | 49.74433 | 10.33151 | 36105 ft | 456 kts | 332° |
| 2026-05-07 21:03 | 49.80176 | 10.28950 | 36095 ft | 457 kts | 332° |
| 2026-05-07 21:04 | 49.85931 | 10.24759 | 36095 ft | 457 kts | 332° |
| 2026-05-07 21:04 | 49.91682 | 10.20567 | 36095 ft | 457 kts | 332° |
| 2026-05-07 21:05 | 49.97439 | 10.16352 | 36095 ft | 457 kts | 332° |
| 2026-05-07 21:05 | 50.03186 | 10.12112 | 36096 ft | 457 kts | 332° |
| 2026-05-07 21:06 | 50.08897 | 10.07893 | 36102 ft | 457 kts | 332° |
| 2026-05-07 21:06 | 50.14635 | 10.03639 | 36101 ft | 457 kts | 332° |
| 2026-05-07 21:07 | 50.20369 | 9.99383 | 36100 ft | 456 kts | 332° |
| 2026-05-07 21:07 | 50.26106 | 9.95116 | 36106 ft | 457 kts | 332° |
| 2026-05-07 21:08 | 50.31838 | 9.90843 | 36105 ft | 457 kts | 332° |
| 2026-05-07 21:08 | 50.37574 | 9.86543 | 36106 ft | 457 kts | 332° |
| 2026-05-07 21:09 | 50.43308 | 9.82241 | 36108 ft | 457 kts | 332° |
| 2026-05-07 21:09 | 50.49031 | 9.77908 | 36114 ft | 457 kts | 332° |
| 2026-05-07 21:10 | 50.54770 | 9.73578 | 36111 ft | 457 kts | 332° |
| 2026-05-07 21:10 | 50.60498 | 9.69235 | 36112 ft | 457 kts | 332° |
| 2026-05-07 21:11 | 50.66228 | 9.64916 | 36114 ft | 457 kts | 332° |
| 2026-05-07 21:11 | 50.74210 | 9.57140 | 36115 ft | 451 kts | 313° |
| 2026-05-07 21:12 | 50.78489 | 9.49888 | 36119 ft | 451 kts | 311° |
| 2026-05-07 21:12 | 50.82765 | 9.42617 | 36118 ft | 452 kts | 311° |
| 2026-05-07 21:13 | 50.87061 | 9.35356 | 36116 ft | 452 kts | 311° |
| 2026-05-07 21:13 | 50.91382 | 9.28098 | 36115 ft | 453 kts | 311° |
| 2026-05-07 21:14 | 50.95683 | 9.20799 | 36115 ft | 453 kts | 311° |
| 2026-05-07 21:14 | 50.99978 | 9.13484 | 36114 ft | 453 kts | 311° |
| 2026-05-07 21:15 | 51.04278 | 9.06154 | 36114 ft | 453 kts | 311° |
| 2026-05-07 21:15 | 51.08577 | 8.98812 | 36115 ft | 454 kts | 311° |
| 2026-05-07 21:16 | 51.12882 | 8.91473 | 36118 ft | 454 kts | 311° |
| 2026-05-07 21:16 | 51.17176 | 8.84102 | 36119 ft | 454 kts | 311° |
| 2026-05-07 21:17 | 51.21460 | 8.76716 | 36124 ft | 454 kts | 311° |
| 2026-05-07 21:17 | 51.25712 | 8.69362 | 36132 ft | 454 kts | 311° |
| 2026-05-07 21:18 | 51.29994 | 8.61939 | 36123 ft | 454 kts | 311° |
| 2026-05-07 21:18 | 51.34277 | 8.54495 | 36123 ft | 455 kts | 311° |
| 2026-05-07 21:19 | 51.38556 | 8.47026 | 36119 ft | 456 kts | 311° |
| 2026-05-07 21:19 | 51.42837 | 8.39538 | 36119 ft | 456 kts | 311° |
| 2026-05-07 21:20 | 51.47117 | 8.32030 | 36117 ft | 456 kts | 310° |
| 2026-05-07 21:20 | 51.51388 | 8.24513 | 36120 ft | 456 kts | 310° |
| 2026-05-07 21:21 | 51.55656 | 8.16976 | 36121 ft | 456 kts | 310° |
| 2026-05-07 21:21 | 51.59910 | 8.09404 | 36119 ft | 457 kts | 310° |
| 2026-05-07 21:22 | 51.64162 | 8.01816 | 36122 ft | 456 kts | 310° |
| 2026-05-07 21:22 | 51.68425 | 7.94223 | 36120 ft | 457 kts | 310° |
| 2026-05-07 21:23 | 51.72651 | 7.86668 | 36119 ft | 457 kts | 310° |
| 2026-05-07 21:23 | 51.76902 | 7.79055 | 36118 ft | 457 kts | 310° |
| 2026-05-07 21:24 | 51.81168 | 7.71433 | 36118 ft | 458 kts | 310° |
| 2026-05-07 21:24 | 51.85423 | 7.63783 | 36099 ft | 453 kts | 310° |
| 2026-05-07 21:25 | 51.87515 | 7.60005 | 35395 ft | 451 kts | 310° |
| 2026-05-07 21:25 | 51.89608 | 7.56212 | 34637 ft | 451 kts | 309° |
| 2026-05-07 21:25 | 51.91685 | 7.52440 | 34043 ft | 447 kts | 310° |
| 2026-05-07 21:25 | 51.93741 | 7.48703 | 33424 ft | 441 kts | 309° |
| 2026-05-07 21:26 | 51.95766 | 7.45017 | 32884 ft | 435 kts | 309° |
| 2026-05-07 21:26 | 51.97769 | 7.41376 | 32392 ft | 429 kts | 309° |
| 2026-05-07 21:26 | 51.99737 | 7.37792 | 31875 ft | 423 kts | 309° |
| 2026-05-07 21:26 | 52.01679 | 7.34247 | 31383 ft | 417 kts | 309° |
| 2026-05-07 21:27 | 52.03591 | 7.30750 | 30896 ft | 412 kts | 309° |
| 2026-05-07 21:27 | 52.05480 | 7.27290 | 30416 ft | 406 kts | 309° |
| 2026-05-07 21:27 | 52.07341 | 7.23876 | 29912 ft | 401 kts | 309° |
| 2026-05-07 21:27 | 52.09179 | 7.20503 | 29372 ft | 396 kts | 309° |
| 2026-05-07 21:28 | 52.10989 | 7.17175 | 28859 ft | 391 kts | 309° |
| 2026-05-07 21:28 | 52.12775 | 7.13886 | 28394 ft | 386 kts | 309° |
| 2026-05-07 21:28 | 52.14546 | 7.10618 | 27957 ft | 383 kts | 309° |
| 2026-05-07 21:28 | 52.15706 | 7.08468 | 27663 ft | 381 kts | 308° |
| 2026-05-07 21:29 | 52.17422 | 7.03583 | 27227 ft | 375 kts | 286° |
| 2026-05-07 21:29 | 52.17952 | 6.99456 | 26957 ft | 372 kts | 277° |
| 2026-05-07 21:29 | 52.18292 | 6.95285 | 26696 ft | 371 kts | 276° |
| 2026-05-07 21:29 | 52.18624 | 6.91127 | 26434 ft | 369 kts | 276° |
| 2026-05-07 21:30 | 52.18972 | 6.86989 | 26188 ft | 368 kts | 277° |
| 2026-05-07 21:30 | 52.19212 | 6.84204 | 26102 ft | 368 kts | 277° |
| 2026-05-07 21:30 | 52.19574 | 6.80077 | 26088 ft | 368 kts | 277° |
| 2026-05-07 21:30 | 52.19931 | 6.76006 | 26099 ft | 368 kts | 277° |
| 2026-05-07 21:31 | 52.20296 | 6.71879 | 26114 ft | 368 kts | 277° |
| 2026-05-07 21:31 | 52.20660 | 6.67752 | 26114 ft | 368 kts | 277° |
| 2026-05-07 21:31 | 52.21021 | 6.63631 | 26114 ft | 368 kts | 277° |
| 2026-05-07 21:31 | 52.21381 | 6.59499 | 26111 ft | 368 kts | 277° |
| 2026-05-07 21:32 | 52.21740 | 6.55368 | 26113 ft | 368 kts | 277° |
| 2026-05-07 21:32 | 52.22094 | 6.51238 | 26111 ft | 368 kts | 277° |
| 2026-05-07 21:32 | 52.22449 | 6.47132 | 26013 ft | 362 kts | 277° |
| 2026-05-07 21:32 | 52.22801 | 6.43044 | 25239 ft | 367 kts | 277° |
| 2026-05-07 21:33 | 52.23153 | 6.38900 | 24560 ft | 370 kts | 276° |
| 2026-05-07 21:33 | 52.23505 | 6.34756 | 24068 ft | 367 kts | 277° |
| 2026-05-07 21:33 | 52.23854 | 6.30661 | 23612 ft | 363 kts | 277° |
| 2026-05-07 21:33 | 52.24196 | 6.26616 | 23134 ft | 358 kts | 276° |
| 2026-05-07 21:34 | 52.24531 | 6.22627 | 22693 ft | 352 kts | 276° |
| 2026-05-07 21:34 | 52.24861 | 6.18691 | 22242 ft | 349 kts | 276° |
| 2026-05-07 21:34 | 52.25186 | 6.14787 | 21801 ft | 346 kts | 276° |
| 2026-05-07 21:34 | 52.25508 | 6.10904 | 21372 ft | 344 kts | 276° |
| 2026-05-07 21:35 | 52.25826 | 6.07047 | 20957 ft | 342 kts | 276° |
| 2026-05-07 21:35 | 52.26141 | 6.03215 | 20541 ft | 340 kts | 276° |
| 2026-05-07 21:35 | 52.26449 | 5.99399 | 20133 ft | 338 kts | 276° |
| 2026-05-07 21:35 | 52.26758 | 5.95612 | 19749 ft | 336 kts | 276° |
| 2026-05-07 21:36 | 52.27065 | 5.91839 | 19375 ft | 335 kts | 276° |
| 2026-05-07 21:36 | 52.27372 | 5.88080 | 18996 ft | 334 kts | 276° |
| 2026-05-07 21:36 | 52.27676 | 5.84325 | 18624 ft | 334 kts | 276° |
| 2026-05-07 21:36 | 52.27977 | 5.80567 | 18231 ft | 334 kts | 276° |
| 2026-05-07 21:37 | 52.28276 | 5.76817 | 17837 ft | 333 kts | 276° |
| 2026-05-07 21:37 | 52.28575 | 5.73071 | 17453 ft | 332 kts | 276° |
| 2026-05-07 21:37 | 52.28872 | 5.69337 | 17072 ft | 332 kts | 276° |
| 2026-05-07 21:37 | 52.29164 | 5.65601 | 16692 ft | 331 kts | 276° |
| 2026-05-07 21:38 | 52.29457 | 5.61878 | 16335 ft | 330 kts | 276° |
| 2026-05-07 21:38 | 52.29741 | 5.58208 | 16000 ft | 329 kts | 276° |
| 2026-05-07 21:38 | 52.30018 | 5.54502 | 15670 ft | 328 kts | 276° |
| 2026-05-07 21:38 | 52.30296 | 5.50818 | 15335 ft | 326 kts | 276° |
| 2026-05-07 21:39 | 52.30582 | 5.47142 | 14990 ft | 326 kts | 276° |
| 2026-05-07 21:39 | 52.30868 | 5.43476 | 14636 ft | 326 kts | 276° |
| 2026-05-07 21:39 | 52.31148 | 5.39799 | 14271 ft | 325 kts | 276° |
| 2026-05-07 21:39 | 52.31429 | 5.36141 | 13930 ft | 324 kts | 276° |
| 2026-05-07 21:40 | 52.31706 | 5.32490 | 13561 ft | 323 kts | 276° |
| 2026-05-07 21:40 | 52.31973 | 5.28852 | 13204 ft | 322 kts | 276° |
| 2026-05-07 21:40 | 52.32244 | 5.25235 | 12864 ft | 320 kts | 276° |
| 2026-05-07 21:40 | 52.32523 | 5.21634 | 12516 ft | 319 kts | 276° |
| 2026-05-07 21:41 | 52.32785 | 5.18045 | 12161 ft | 318 kts | 276° |
| 2026-05-07 21:41 | 52.33047 | 5.14465 | 11819 ft | 317 kts | 276° |
| 2026-05-07 21:41 | 52.33311 | 5.10893 | 11487 ft | 316 kts | 275° |
| 2026-05-07 21:41 | 52.33177 | 5.07344 | 11150 ft | 314 kts | 254° |
| 2026-05-07 21:42 | 52.32401 | 5.04015 | 10757 ft | 313 kts | 245° |
| 2026-05-07 21:42 | 52.31389 | 5.00888 | 10302 ft | 312 kts | 236° |
| 2026-05-07 21:42 | 52.30131 | 4.98001 | 9804 ft | 311 kts | 233° |
| 2026-05-07 21:42 | 52.28831 | 4.95179 | 9291 ft | 311 kts | 232° |
| 2026-05-07 21:43 | 52.27525 | 4.92370 | 8747 ft | 311 kts | 232° |
| 2026-05-07 21:43 | 52.26221 | 4.89557 | 8228 ft | 310 kts | 232° |
| 2026-05-07 21:43 | 52.24922 | 4.86744 | 7708 ft | 310 kts | 232° |
| 2026-05-07 21:43 | 52.23628 | 4.83940 | 7274 ft | 308 kts | 232° |
| 2026-05-07 21:44 | 52.22357 | 4.81190 | 7036 ft | 299 kts | 232° |
| 2026-05-07 21:44 | 52.21119 | 4.78509 | 6732 ft | 293 kts | 232° |
| 2026-05-07 21:44 | 52.19907 | 4.75875 | 6372 ft | 289 kts | 232° |
| 2026-05-07 21:44 | 52.18729 | 4.73307 | 5988 ft | 285 kts | 232° |
| 2026-05-07 21:45 | 52.17545 | 4.70726 | 5601 ft | 283 kts | 232° |
| 2026-05-07 21:45 | 52.16358 | 4.68136 | 5194 ft | 281 kts | 232° |
| 2026-05-07 21:45 | 52.15233 | 4.65603 | 4802 ft | 279 kts | 239° |
| 2026-05-07 21:45 | 52.14622 | 4.62636 | 4357 ft | 278 kts | 263° |
| 2026-05-07 21:46 | 52.14732 | 4.59528 | 3843 ft | 272 kts | 281° |
| 2026-05-07 21:46 | 52.15433 | 4.56685 | 3365 ft | 274 kts | 303° |
| 2026-05-07 21:46 | 52.16776 | 4.54535 | 3053 ft | 269 kts | 328° |
| 2026-05-07 21:46 | 52.18457 | 4.53441 | 2979 ft | 254 kts | 351° |
| 2026-05-07 21:47 | 52.20149 | 4.53426 | 2971 ft | 234 kts | 12° |
| 2026-05-07 21:47 | 52.21602 | 4.54279 | 2962 ft | 212 kts | 33° |
| 2026-05-07 21:47 | 52.22726 | 4.55731 | 2975 ft | 205 kts | 50° |
| 2026-05-07 21:47 | 52.23370 | 4.57664 | 2994 ft | 179 kts | 76° |
| 2026-05-07 21:48 | 52.23698 | 4.59523 | 2755 ft | 169 kts | 73° |
| 2026-05-07 21:48 | 52.24130 | 4.61327 | 2202 ft | 175 kts | 66° |
| 2026-05-07 21:48 | 52.24753 | 4.63025 | 1815 ft | 171 kts | 57° |
| 2026-05-07 21:48 | 52.25405 | 4.64603 | 1429 ft | 166 kts | 60° |
| 2026-05-07 21:49 | 52.25974 | 4.66196 | 1101 ft | 159 kts | 58° |
| 2026-05-07 21:49 | 52.26560 | 4.67624 | 909 ft | 144 kts | 58° |
| 2026-05-07 21:49 | 52.27064 | 4.68999 | 697 ft | 141 kts | 58° |
| 2026-05-07 21:49 | 52.27597 | 4.70334 | 511 ft | 140 kts | 58° |
| 2026-05-07 21:50 | 52.28113 | 4.71684 | 332 ft | 140 kts | 57° |
| 2026-05-07 21:50 | 52.28643 | 4.73033 | 134 ft | 141 kts | 57° |
| 2026-05-07 21:50 | 52.29152 | 4.74366 | 6 ft | 130 kts | 57° |
| 2026-05-07 21:50 | 52.29597 | 4.75508 | 3 ft | 108 kts | 58° |
| 2026-05-07 21:51 | 52.29961 | 4.76451 | 3 ft | 89 kts | 57° |
| 2026-05-07 21:51 | 52.30214 | 4.77115 | 2 ft | 35 kts | 54° |
| 2026-05-07 21:51 | 52.30374 | 4.77370 | 2 ft | 25 kts | 19° |
| 2026-05-07 21:51 | 52.30506 | 4.77378 | 4 ft | 21 kts | 322° |
| 2026-05-07 21:52 | 52.30627 | 4.77253 | 4 ft | 20 kts | 315° |
| 2026-05-07 21:52 | 52.30653 | 4.77049 | 4 ft | 20 kts | 271° |
| 2026-05-07 21:52 | 52.30656 | 4.76877 | 4 ft | 9 kts | 248° |
| 2026-05-07 21:52 | 52.30650 | 4.76774 | 4 ft | 11 kts | 295° |
| 2026-05-07 21:53 | 52.30650 | 4.76692 | 4 ft | 3 kts | 237° |
| 2026-05-07 21:53 | 52.30633 | 4.76652 | 4 ft | 5 kts | 234° |
| 2026-05-07 21:53 | 52.30627 | 4.76636 | 4 ft | 0 kts | 234° |